createdAt,value
2023-04-25T00:01:29.625Z,37.50
2023-04-25T00:04:00.361Z,38.30
2023-04-25T00:06:32.352Z,38.21
2023-04-25T00:09:02.976Z,38.01
2023-04-25T00:11:33.958Z,38.12
2023-04-25T00:14:04.999Z,38.49
2023-04-25T00:16:37.352Z,37.77
2023-04-25T00:19:07.860Z,38.75
2023-04-25T00:21:40.312Z,38.04
2023-04-25T00:24:11.330Z,38.38
2023-04-25T00:26:42.507Z,38.49
2023-04-25T00:29:12.925Z,37.81
2023-04-25T00:31:43.752Z,38.30
2023-04-25T00:34:14.309Z,38.09
2023-04-25T00:36:44.820Z,37.71
2023-04-25T00:39:15.885Z,37.58
2023-04-25T00:41:48.215Z,37.23
2023-04-25T00:44:19.573Z,37.21
2023-04-25T00:46:52.151Z,37.12
2023-04-25T00:49:22.647Z,36.97
2023-04-25T00:51:53.069Z,37.12
2023-04-25T00:54:23.977Z,36.67
2023-04-25T00:56:54.712Z,37.12
2023-04-25T00:59:25.513Z,36.63
2023-04-25T01:01:56.079Z,37.08
2023-04-25T01:04:26.887Z,36.38
2023-04-25T01:06:58.148Z,37.29
2023-04-25T01:09:29.483Z,37.03
2023-04-25T01:12:00.188Z,37.33
2023-04-25T01:14:31.730Z,36.94
2023-04-25T01:17:02.800Z,36.51
2023-04-25T01:19:33.430Z,37.36
2023-04-25T01:22:04.126Z,37.21
2023-04-25T01:24:36.276Z,36.48
2023-04-25T01:27:07.242Z,36.94
2023-04-25T01:29:38.895Z,36.35
2023-04-25T01:32:10.710Z,37.02
2023-04-25T01:34:42.615Z,36.56
2023-04-25T01:37:13.185Z,36.60
2023-04-25T01:39:44.261Z,37.16
2023-04-25T01:42:15.608Z,37.22
2023-04-25T01:44:46.823Z,37.15
2023-04-25T01:47:17.763Z,37.29
2023-04-25T01:49:48.812Z,37.03
2023-04-25T01:52:19.947Z,36.63
2023-04-25T01:54:50.925Z,36.77
2023-04-25T01:57:21.611Z,36.76
2023-04-25T01:59:52.892Z,38.37
2023-04-25T02:02:41.662Z,38.23
2023-04-25T02:05:36.990Z,39.32
2023-04-25T02:08:11.875Z,38.68
2023-04-25T02:10:42.265Z,38.66
2023-04-25T02:13:21.645Z,39.17
2023-04-25T02:16:18.304Z,39.26
2023-04-25T02:18:49.464Z,39.45
2023-04-25T02:21:20.012Z,39.69
2023-04-25T02:23:52.283Z,39.39
2023-04-25T02:26:23.700Z,39.55
2023-04-25T02:28:54.698Z,39.81
2023-04-25T02:31:25.090Z,39.63
2023-04-25T02:33:55.764Z,40.03
2023-04-25T02:39:22.080Z,39.84
2023-04-25T02:41:52.854Z,39.72
2023-04-25T02:47:09.100Z,39.07
2023-04-25T02:49:39.737Z,38.96
2023-04-25T02:52:10.268Z,39.61
2023-04-25T02:54:41.338Z,39.04
2023-04-25T02:57:13.030Z,39.12
2023-04-25T02:59:43.243Z,39.18
2023-04-25T03:02:14.009Z,39.10
2023-04-25T03:04:44.554Z,38.25
2023-04-25T03:07:15.032Z,39.17
2023-04-25T03:09:45.765Z,38.42
2023-04-25T03:12:16.245Z,38.63
2023-04-25T03:14:47.142Z,38.28
2023-04-25T03:17:18.864Z,40.12
2023-04-25T03:19:50.959Z,40.58
2023-04-25T03:22:21.710Z,40.20
2023-04-25T03:24:52.714Z,40.83
2023-04-25T03:27:23.343Z,40.58
2023-04-25T03:29:54.633Z,40.81
2023-04-25T03:32:25.230Z,40.88
2023-04-25T03:34:55.853Z,42.01
2023-04-25T03:37:28.642Z,42.27
2023-04-25T03:39:59.879Z,42.07
2023-04-25T03:42:43.466Z,42.67
2023-04-25T03:45:15.923Z,42.77
2023-04-25T03:47:46.998Z,42.93
2023-04-25T03:50:17.728Z,42.19
2023-04-25T03:52:48.830Z,42.93
2023-04-25T03:55:19.631Z,42.83
2023-04-25T03:57:50.131Z,42.19
2023-04-25T04:00:21.974Z,42.33
2023-04-25T04:02:55.524Z,42.95
2023-04-25T04:05:27.006Z,42.86
2023-04-25T04:07:59.562Z,43.62
2023-04-25T04:10:30.607Z,43.28
2023-04-25T04:13:01.875Z,43.35
2023-04-25T04:15:35.367Z,43.90
2023-04-25T04:18:05.927Z,43.41
2023-04-25T04:20:36.521Z,43.77
2023-04-25T04:23:07.875Z,43.79
2023-04-25T04:25:39.375Z,44.03
2023-04-25T04:28:56.848Z,44.15
2023-04-25T04:31:48.801Z,44.83
2023-04-25T04:34:20.879Z,44.25
2023-04-25T04:36:52.400Z,44.36
2023-04-25T04:39:23.837Z,44.02
2023-04-25T04:42:14.219Z,44.12
2023-04-25T04:45:08.118Z,44.36
2023-04-25T04:47:48.388Z,44.34
2023-04-25T04:50:38.602Z,44.18
2023-04-25T04:53:08.987Z,44.36
2023-04-25T04:55:49.857Z,44.31
2023-04-25T04:58:51.507Z,44.38
2023-04-25T05:01:44.948Z,44.76
2023-04-25T05:04:38.639Z,44.73
2023-04-25T05:07:23.788Z,44.44
2023-04-25T05:10:28.534Z,44.79
2023-04-25T05:19:27.421Z,45.76
2023-04-25T05:22:33.574Z,45.75
2023-04-25T05:25:15.900Z,45.04
2023-04-25T05:28:04.502Z,45.75
2023-04-25T05:30:53.898Z,45.97
2023-04-25T05:33:30.962Z,45.32
2023-04-25T05:36:06.606Z,45.54
2023-04-25T05:38:37.140Z,45.87
2023-04-25T05:41:25.729Z,45.10
2023-04-25T05:44:03.529Z,44.95
2023-04-25T05:46:56.436Z,45.60
2023-04-25T05:49:58.725Z,45.52
2023-04-25T05:53:01.414Z,45.85
2023-04-25T05:55:35.324Z,45.99
2023-04-25T05:58:19.538Z,45.20
2023-04-25T06:00:51.028Z,45.90
2023-04-25T06:03:22.022Z,45.31
2023-04-25T06:05:56.897Z,45.38
2023-04-25T06:08:27.491Z,45.18
2023-04-25T06:10:57.889Z,45.47
2023-04-25T06:13:28.491Z,44.76
2023-04-25T06:15:59.943Z,44.98
2023-04-25T06:18:31.027Z,45.25
2023-04-25T06:21:01.491Z,44.26
2023-04-25T06:23:32.131Z,44.95
2023-04-25T06:26:07.649Z,44.29
2023-04-25T06:28:41.665Z,44.69
2023-04-25T06:31:12.865Z,43.76
2023-04-25T06:33:46.113Z,44.67
2023-04-25T06:36:16.931Z,44.40
2023-04-25T06:38:51.270Z,44.06
2023-04-25T06:41:22.562Z,44.64
2023-04-25T06:43:54.069Z,43.98
2023-04-25T06:46:38.903Z,44.30
2023-04-25T06:49:10.055Z,43.47
2023-04-25T06:51:41.471Z,43.72
2023-04-25T06:54:12.190Z,43.27
2023-04-25T06:56:51.404Z,43.85
2023-04-25T06:59:22.090Z,43.37
2023-04-25T07:01:53.685Z,43.91
2023-04-25T07:04:29.005Z,43.35
2023-04-25T07:07:03.455Z,43.40
2023-04-25T07:09:56.223Z,43.31
2023-04-25T07:12:26.852Z,43.72
2023-04-25T07:14:57.385Z,43.37
2023-04-25T07:17:27.966Z,43.00
2023-04-25T07:19:58.505Z,42.64
2023-04-25T07:22:30.205Z,42.96
2023-04-25T07:25:00.880Z,42.55
2023-04-25T07:27:32.816Z,42.71
2023-04-25T07:30:13.259Z,43.53
2023-04-25T07:32:44.310Z,42.71
2023-04-25T07:35:15.057Z,43.18
2023-04-25T07:37:45.525Z,42.91
2023-04-25T07:40:19.073Z,42.29
2023-04-25T07:42:54.282Z,42.22
2023-04-25T07:45:31.931Z,42.84
2023-04-25T07:48:02.854Z,42.40
2023-04-25T07:50:35.503Z,42.52
2023-04-25T07:53:06.528Z,42.33
2023-04-25T07:55:44.294Z,42.28
2023-04-25T07:58:24.679Z,42.09
2023-04-25T08:00:59.419Z,42.75
2023-04-25T08:03:39.082Z,42.04
2023-04-25T08:06:17.108Z,42.36
2023-04-25T08:09:03.505Z,42.36
2023-04-25T08:11:41.138Z,42.67
2023-04-25T08:14:15.162Z,42.35
2023-04-25T08:16:46.614Z,42.71
2023-04-25T08:19:17.278Z,41.70
2023-04-25T08:21:48.920Z,42.47
2023-04-25T08:24:25.336Z,42.40
2023-04-25T08:26:57.267Z,42.64
2023-04-25T08:29:31.091Z,41.64
2023-04-25T08:32:01.920Z,41.74
2023-04-25T08:34:33.038Z,41.43
2023-04-25T08:37:07.211Z,41.86
2023-04-25T08:39:47.683Z,42.35
2023-04-25T08:42:38.060Z,42.11
2023-04-25T08:45:10.128Z,42.03
2023-04-25T08:47:43.977Z,41.41
2023-04-25T08:50:15.110Z,42.13
2023-04-25T08:52:50.566Z,42.20
2023-04-25T08:55:22.554Z,41.25
2023-04-25T08:57:59.268Z,42.52
2023-04-25T09:00:29.899Z,41.95
2023-04-25T09:03:02.104Z,41.70
2023-04-25T09:05:39.289Z,42.38
2023-04-25T09:08:11.274Z,42.06
2023-04-25T09:10:42.678Z,41.93
2023-04-25T09:13:17.418Z,42.29
2023-04-25T09:16:05.976Z,41.63
2023-04-25T09:18:48.433Z,42.04
2023-04-25T09:21:20.628Z,41.19
2023-04-25T09:23:54.289Z,41.44
2023-04-25T09:26:25.240Z,41.89
2023-04-25T09:29:09.872Z,41.85
2023-04-25T09:31:43.942Z,41.52
2023-04-25T09:34:18.252Z,41.72
2023-04-25T09:36:58.057Z,40.93
2023-04-25T09:39:49.737Z,40.96
2023-04-25T09:42:24.988Z,41.36
2023-04-25T09:44:56.770Z,41.66
2023-04-25T09:47:31.011Z,41.21
2023-04-25T09:50:01.354Z,41.14
2023-04-25T09:52:32.876Z,41.89
2023-04-25T09:55:14.846Z,41.40
2023-04-25T09:57:51.842Z,41.57
2023-04-25T10:00:24.333Z,41.18
2023-04-25T10:02:55.784Z,42.33
2023-04-25T10:05:47.465Z,41.46
2023-04-25T10:08:18.992Z,42.07
2023-04-25T10:10:53.322Z,41.47
2023-04-25T10:13:24.324Z,41.29
2023-04-25T10:15:57.042Z,41.84
2023-04-25T10:18:29.918Z,42.15
2023-04-25T10:21:03.125Z,41.87
2023-04-25T10:23:34.915Z,41.15
2023-04-25T10:26:06.244Z,41.43
2023-04-25T10:29:00.382Z,41.80
2023-04-25T10:31:33.302Z,41.20
2023-04-25T10:34:04.272Z,41.30
2023-04-25T10:36:39.930Z,41.70
2023-04-25T10:39:13.639Z,41.56
2023-04-25T10:41:55.174Z,41.07
2023-04-25T10:44:26.070Z,41.94
2023-04-25T10:46:59.649Z,41.09
2023-04-25T10:49:45.703Z,40.86
2023-04-25T10:52:43.174Z,41.59
2023-04-25T10:55:14.002Z,41.30
2023-04-25T10:57:46.427Z,41.12
2023-04-25T11:00:18.505Z,41.73
2023-04-25T11:02:51.378Z,41.73
2023-04-25T11:05:32.907Z,41.41
2023-04-25T11:08:08.194Z,41.24
2023-04-25T11:10:39.170Z,41.18
2023-04-25T11:13:09.672Z,40.88
2023-04-25T11:15:41.146Z,41.62
2023-04-25T11:18:11.792Z,41.90
2023-04-25T11:20:46.199Z,41.28
2023-04-25T11:23:18.502Z,41.36
2023-04-25T11:25:49.182Z,41.13
2023-04-25T11:28:27.864Z,41.25
2023-04-25T11:30:59.821Z,41.70
2023-04-25T11:33:30.469Z,41.57
2023-04-25T11:36:01.635Z,41.73
2023-04-25T11:38:32.510Z,41.38
2023-04-25T11:41:02.921Z,41.40
2023-04-25T11:43:33.569Z,41.63
2023-04-25T11:46:10.734Z,42.15
2023-04-25T11:48:45.954Z,41.50
2023-04-25T11:51:16.348Z,41.96
2023-04-25T11:53:48.762Z,41.12
2023-04-25T11:56:20.097Z,41.07
2023-04-25T11:59:04.296Z,41.76
2023-04-25T12:01:36.887Z,41.84
2023-04-25T12:04:18.884Z,40.95
2023-04-25T12:06:51.229Z,41.88
2023-04-25T12:09:24.644Z,41.88
2023-04-25T12:11:58.714Z,40.97
2023-04-25T12:14:31.363Z,41.65
2023-04-25T12:17:09.551Z,41.13
2023-04-25T12:19:46.328Z,42.17
2023-04-25T12:22:25.670Z,41.56
2023-04-25T12:24:56.676Z,41.54
2023-04-25T12:27:29.848Z,42.05
2023-04-25T12:30:01.005Z,41.34
2023-04-25T12:32:32.475Z,41.75
2023-04-25T12:35:02.911Z,41.84
2023-04-25T12:37:33.461Z,41.78
2023-04-25T12:40:04.090Z,41.65
2023-04-25T12:42:34.550Z,41.68
2023-04-25T12:45:05.024Z,41.70
2023-04-25T12:47:37.820Z,42.05
2023-04-25T12:50:09.415Z,42.13
2023-04-25T12:52:39.801Z,41.49
2023-04-25T12:55:11.278Z,42.17
2023-04-25T12:57:42.368Z,42.01
2023-04-25T13:00:17.223Z,42.17
2023-04-25T13:02:48.218Z,41.44
2023-04-25T13:05:18.909Z,41.44
2023-04-25T13:07:49.564Z,41.96
2023-04-25T13:10:20.632Z,42.08
2023-04-25T13:12:51.157Z,41.82
2023-04-25T13:15:22.989Z,41.79
2023-04-25T13:17:53.525Z,42.18
2023-04-25T13:20:24.928Z,42.75
2023-04-25T13:22:56.172Z,42.21
2023-04-25T13:25:29.365Z,42.18
2023-04-25T13:28:00.485Z,41.90
2023-04-25T13:30:30.908Z,42.09
2023-04-25T13:33:05.588Z,42.73
2023-04-25T13:35:37.772Z,41.77
2023-04-25T13:38:09.511Z,41.53
2023-04-25T13:40:40.196Z,42.19
2023-04-25T13:43:10.621Z,41.70
2023-04-25T13:45:42.252Z,41.77
2023-04-25T13:48:13.037Z,42.52
2023-04-25T13:50:44.211Z,41.54
2023-04-25T13:53:14.768Z,41.85
2023-04-25T13:55:46.268Z,42.21
2023-04-25T13:58:16.552Z,41.77
2023-04-25T14:00:48.647Z,42.10
2023-04-25T14:03:19.201Z,41.64
2023-04-25T14:05:49.545Z,42.49
2023-04-25T14:08:20.545Z,42.12
2023-04-25T14:10:51.113Z,42.14
2023-04-25T14:13:22.353Z,41.68
2023-04-25T14:15:53.234Z,42.06
2023-04-25T14:18:23.830Z,42.19
2023-04-25T14:20:54.260Z,42.43
2023-04-25T14:23:24.518Z,41.71
2023-04-25T14:25:55.111Z,41.95
2023-04-25T14:28:26.381Z,42.00
2023-04-25T14:30:56.911Z,41.59
2023-04-25T14:33:28.366Z,42.58
2023-04-25T14:35:58.881Z,41.71
2023-04-25T14:38:29.451Z,42.35
2023-04-25T14:40:59.899Z,42.66
2023-04-25T14:43:30.391Z,41.78
2023-04-25T14:46:00.968Z,42.33
2023-04-25T14:48:32.359Z,42.63
2023-04-25T14:51:03.555Z,42.35
2023-04-25T14:53:34.887Z,41.51
2023-04-25T14:56:05.725Z,41.99
2023-04-25T14:58:36.490Z,41.46
2023-04-25T15:01:07.074Z,41.53
2023-04-25T15:03:38.027Z,42.00
2023-04-25T15:06:11.622Z,41.82
2023-04-25T15:08:42.372Z,41.58
2023-04-25T15:11:13.662Z,41.36
2023-04-25T15:13:44.193Z,41.68
2023-04-25T15:16:15.331Z,41.49
2023-04-25T15:18:46.224Z,42.58
2023-04-25T15:21:16.644Z,41.40
2023-04-25T15:23:47.206Z,41.40
2023-04-25T15:26:18.531Z,41.35
2023-04-25T15:28:49.105Z,41.58
2023-04-25T15:31:20.286Z,42.53
2023-04-25T15:33:51.025Z,42.10
2023-04-25T15:36:23.167Z,41.37
2023-04-25T15:38:53.975Z,42.02
2023-04-25T15:41:25.243Z,42.19
2023-04-25T15:43:56.287Z,42.15
2023-04-25T15:46:27.206Z,42.55
2023-04-25T15:48:58.322Z,42.33
2023-04-25T15:51:29.758Z,42.21
2023-04-25T15:54:00.359Z,42.04
2023-04-25T15:56:31.217Z,41.04
2023-04-25T15:59:01.933Z,41.51
2023-04-25T16:01:33.066Z,41.51
2023-04-25T16:04:04.274Z,41.20
2023-04-25T16:06:35.267Z,42.21
2023-04-25T16:09:06.221Z,42.24
2023-04-25T16:11:36.990Z,41.35
2023-04-25T16:14:07.665Z,41.27
2023-04-25T16:16:38.258Z,42.24
2023-04-25T16:19:09.002Z,41.27
2023-04-25T16:21:39.670Z,41.92
2023-04-25T16:24:10.617Z,42.16
2023-04-25T16:26:42.609Z,41.93
2023-04-25T16:29:15.094Z,41.92
2023-04-25T16:31:48.672Z,41.51
2023-04-25T16:34:19.173Z,41.61
2023-04-25T16:36:49.845Z,41.27
2023-04-25T16:39:20.317Z,41.99
2023-04-25T16:41:51.697Z,41.80
2023-04-25T16:44:22.295Z,41.19
2023-04-25T16:46:52.791Z,42.21
2023-04-25T16:49:23.302Z,42.25
2023-04-25T16:51:54.525Z,41.49
2023-04-25T16:54:26.980Z,41.22
2023-04-25T16:56:58.277Z,41.37
2023-04-25T16:59:28.756Z,41.27
2023-04-25T17:01:59.938Z,41.18
2023-04-25T17:04:30.860Z,41.38
2023-04-25T17:07:01.535Z,42.15
2023-04-25T17:09:34.052Z,41.15
2023-04-25T17:12:05.486Z,41.43
2023-04-25T17:14:37.469Z,41.31
2023-04-25T17:17:08.505Z,41.19
2023-04-25T17:19:39.289Z,41.02
2023-04-25T17:22:09.876Z,41.10
2023-04-25T17:24:42.081Z,41.59
2023-04-25T17:27:13.490Z,41.53
2023-04-25T17:29:44.148Z,42.01
2023-04-25T17:32:16.300Z,41.09
2023-04-25T17:34:49.653Z,41.43
2023-04-25T17:37:20.469Z,41.87
2023-04-25T17:39:51.561Z,41.48
2023-04-25T17:42:21.961Z,41.54
2023-04-25T17:44:52.587Z,41.68
2023-04-25T17:47:23.205Z,42.04
2023-04-25T17:49:54.493Z,41.47
2023-04-25T17:52:25.823Z,42.44
2023-04-25T17:54:56.233Z,41.52
2023-04-25T17:57:26.940Z,41.48
2023-04-25T17:59:59.229Z,41.42
2023-04-25T18:02:30.120Z,41.72
2023-04-25T18:05:01.234Z,41.30
2023-04-25T18:07:32.105Z,41.22
2023-04-25T18:10:02.865Z,42.51
2023-04-25T18:12:35.249Z,41.41
2023-04-25T18:15:09.411Z,42.53
2023-04-25T18:17:42.882Z,42.33
2023-04-25T18:20:17.275Z,41.57
2023-04-25T18:22:48.461Z,41.15
2023-04-25T18:25:19.532Z,42.58
2023-04-25T18:27:50.852Z,42.46
2023-04-25T18:30:21.220Z,41.29
2023-04-25T18:32:52.867Z,42.00
2023-04-25T18:35:24.062Z,42.18
2023-04-25T18:37:55.014Z,41.23
2023-04-25T18:40:25.316Z,41.90
2023-04-25T18:42:56.333Z,41.59
2023-04-25T18:45:27.119Z,41.33
2023-04-25T18:47:58.989Z,42.32
2023-04-25T18:50:30.818Z,42.51
2023-04-25T18:53:01.956Z,42.32
2023-04-25T18:55:32.269Z,42.63
2023-04-25T18:58:02.908Z,42.66
2023-04-25T19:00:34.188Z,41.63
2023-04-25T19:03:04.826Z,42.36
2023-04-25T19:05:35.399Z,42.14
2023-04-25T19:08:05.887Z,41.92
2023-04-25T19:10:36.146Z,42.37
2023-04-25T19:13:06.561Z,42.34
2023-04-25T19:15:36.997Z,41.66
2023-04-25T19:18:07.956Z,42.45
2023-04-25T19:20:38.651Z,42.39
2023-04-25T19:23:10.582Z,41.56
2023-04-25T19:25:40.953Z,41.71
2023-04-25T19:28:14.383Z,41.50
2023-04-25T19:30:45.045Z,41.39
2023-04-25T19:33:16.472Z,42.01
2023-04-25T19:35:47.101Z,42.79
2023-04-25T19:38:18.464Z,42.44
2023-04-25T19:40:50.173Z,41.67
2023-04-25T19:43:22.053Z,42.56
2023-04-25T19:45:52.719Z,41.35
2023-04-25T19:48:23.057Z,41.65
2023-04-25T19:50:54.365Z,42.96
2023-04-25T19:53:25.096Z,42.27
2023-04-25T19:55:55.397Z,41.71
2023-04-25T19:58:26.417Z,42.86
2023-04-25T20:00:59.099Z,42.30
2023-04-25T20:03:29.598Z,42.27
2023-04-25T20:06:00.548Z,42.03
2023-04-25T20:08:30.924Z,41.88
2023-04-25T20:11:01.313Z,41.60
2023-04-25T20:13:31.994Z,42.98
2023-04-25T20:16:03.445Z,42.93
2023-04-25T20:18:33.810Z,43.00
2023-04-25T20:21:04.822Z,41.66
2023-04-25T20:23:35.172Z,42.78
2023-04-25T20:26:06.387Z,41.84
2023-04-25T20:28:37.031Z,42.95
2023-04-25T20:31:07.904Z,41.84
2023-04-25T20:33:41.272Z,42.16
2023-04-25T20:36:11.654Z,41.97
2023-04-25T20:38:42.343Z,42.38
2023-04-25T20:41:13.019Z,43.11
2023-04-25T20:43:43.773Z,42.46
2023-04-25T20:46:14.200Z,41.97
2023-04-25T20:48:44.671Z,42.20
2023-04-25T20:51:15.086Z,42.29
2023-04-25T20:53:46.221Z,41.77
2023-04-25T20:56:16.742Z,42.16
2023-04-25T20:58:49.185Z,42.71
2023-04-25T21:01:20.667Z,41.89
2023-04-25T21:03:51.781Z,43.00
2023-04-25T21:06:22.632Z,43.43
2023-04-25T21:08:53.238Z,42.98
2023-04-25T21:11:25.029Z,42.07
2023-04-25T21:13:55.622Z,42.91
2023-04-25T21:16:26.433Z,42.31
2023-04-25T21:18:57.377Z,42.25
2023-04-25T21:21:28.852Z,42.36
2023-04-25T21:23:59.594Z,42.53
2023-04-25T21:26:29.804Z,42.71
2023-04-25T21:29:00.316Z,43.08
2023-04-25T21:31:31.603Z,42.62
2023-04-25T21:34:02.201Z,43.53
2023-04-25T21:36:34.477Z,42.76
2023-04-25T21:39:07.006Z,43.50
2023-04-25T21:41:39.005Z,42.83
2023-04-25T21:44:09.493Z,43.88
2023-04-25T21:46:40.151Z,43.08
2023-04-25T21:49:11.401Z,43.25
2023-04-25T21:51:41.799Z,43.35
2023-04-25T21:54:12.572Z,43.24
2023-04-25T21:56:43.093Z,44.13
2023-04-25T21:59:13.529Z,42.86
2023-04-25T22:01:46.780Z,42.90
2023-04-25T22:04:17.668Z,43.51
2023-04-25T22:06:48.807Z,44.02
2023-04-25T22:09:19.418Z,44.48
2023-04-25T22:11:49.985Z,44.29
2023-04-25T22:14:20.584Z,43.52
2023-04-25T22:16:51.766Z,44.44
2023-04-25T22:19:23.027Z,43.77
2023-04-25T22:21:53.432Z,43.83
2023-04-25T22:24:23.982Z,44.70
2023-04-25T22:26:54.506Z,43.76
2023-04-25T22:29:25.439Z,44.50
2023-04-25T22:31:55.849Z,44.66
2023-04-25T22:34:26.496Z,44.51
2023-04-25T22:36:57.544Z,43.92
2023-04-25T22:39:28.152Z,44.76
2023-04-25T22:41:59.413Z,44.07
2023-04-25T22:44:29.821Z,44.83
2023-04-25T22:47:00.209Z,45.02
2023-04-25T22:49:30.791Z,45.04
2023-04-25T22:52:01.320Z,46.08
2023-04-25T22:54:32.057Z,46.47
2023-04-25T22:57:02.387Z,46.42
2023-04-25T22:59:32.735Z,46.59
2023-04-25T23:02:03.911Z,46.89
2023-04-25T23:04:34.554Z,47.22
2023-04-25T23:07:05.110Z,47.65
2023-04-25T23:09:35.780Z,48.51
2023-04-25T23:12:06.730Z,47.56
2023-04-25T23:14:37.320Z,48.10
2023-04-25T23:17:08.130Z,48.02
2023-04-25T23:19:40.102Z,49.08
2023-04-25T23:22:10.966Z,49.10
2023-04-25T23:24:42.014Z,47.69
2023-04-25T23:27:12.441Z,49.01
2023-04-25T23:29:43.461Z,47.38
2023-04-25T23:32:14.222Z,48.02
2023-04-25T23:34:44.581Z,48.42
2023-04-25T23:37:14.981Z,47.01
2023-04-25T23:39:54.447Z,48.27
2023-04-25T23:42:25.018Z,47.94
2023-04-25T23:44:55.500Z,47.25
2023-04-25T23:47:26.947Z,47.11
2023-04-25T23:49:57.600Z,47.20
2023-04-25T23:52:29.800Z,48.54
2023-04-25T23:55:00.362Z,47.08
2023-04-25T23:57:30.840Z,48.07
